createdAt,value
2018-09-02T00:01:14.960Z,12.00
2018-09-02T00:03:44.500Z,16.83
2018-09-02T00:06:14.941Z,7.77
2018-09-02T00:08:48.133Z,14.50
2018-09-02T00:11:17.614Z,17.57
2018-09-02T00:14:14.657Z,13.60
2018-09-02T00:19:02.748Z,12.27
2018-09-02T00:38:59.241Z,10.43
2018-09-02T00:41:32.144Z,11.77
2018-09-02T00:44:02.600Z,13.40
2018-09-02T00:46:38.434Z,8.90
2018-09-02T00:49:13.378Z,12.70
2018-09-02T00:51:59.780Z,17.70
2018-09-02T00:54:30.520Z,13.73
2018-09-02T00:57:03.789Z,12.90
2018-09-02T00:59:36.193Z,12.10
2018-09-02T01:02:08.641Z,9.73
2018-09-02T01:04:38.417Z,16.80
2018-09-02T01:07:09.956Z,10.27
2018-09-02T01:09:50.093Z,19.50
2018-09-02T01:12:19.688Z,15.53
2018-09-02T01:14:59.276Z,14.23
2018-09-02T01:17:29.860Z,10.37
2018-09-02T01:20:03.697Z,14.60
2018-09-02T01:22:34.396Z,11.60
2018-09-02T01:25:14.797Z,14.80
2018-09-02T01:27:45.336Z,21.93
2018-09-02T01:30:14.784Z,14.97
2018-09-02T01:32:49.669Z,12.43
2018-09-02T01:35:24.600Z,9.63
2018-09-02T01:37:57.700Z,12.30
2018-09-02T01:40:32.160Z,9.70
2018-09-02T01:43:07.480Z,17.37
2018-09-02T01:45:45.453Z,10.10
2018-09-02T01:51:14.180Z,21.57
2018-09-02T01:53:51.512Z,12.77
2018-09-02T01:56:31.159Z,15.17
2018-09-02T01:59:05.765Z,15.80
2018-09-02T02:01:36.328Z,12.30
2018-09-02T02:04:07.292Z,12.37
2018-09-02T02:06:55.940Z,10.83
2018-09-02T02:09:26.396Z,12.27
2018-09-02T02:12:00.996Z,11.23
2018-09-02T02:14:31.656Z,12.37
2018-09-02T02:17:13.056Z,12.30
2018-09-02T02:19:43.116Z,14.07
2018-09-02T02:22:24.784Z,9.80
2018-09-02T02:24:55.328Z,14.70
2018-09-02T02:27:29.248Z,14.30
2018-09-02T02:30:12.262Z,21.70
2018-09-02T02:32:47.188Z,16.10
2018-09-02T02:35:29.100Z,17.70
2018-09-02T02:38:07.152Z,26.00
2018-09-02T02:40:48.164Z,18.10
2018-09-02T02:43:21.871Z,15.37
2018-09-02T02:45:56.972Z,16.80
2018-09-02T02:48:39.840Z,16.60
2018-09-02T02:51:14.556Z,25.20
2018-09-02T02:53:46.140Z,14.27
2018-09-02T02:56:18.923Z,18.03
2018-09-02T02:58:59.078Z,15.83
2018-09-02T03:01:33.700Z,14.47
2018-09-02T03:04:04.476Z,17.10
2018-09-02T03:06:43.968Z,25.33
2018-09-02T03:09:13.509Z,24.00
2018-09-02T03:11:51.037Z,22.07
2018-09-02T03:14:26.416Z,18.20
2018-09-02T03:16:57.144Z,25.57
2018-09-02T03:19:28.620Z,19.93
2018-09-02T03:21:58.308Z,17.53
2018-09-02T03:27:27.228Z,20.87
2018-09-02T03:30:00.463Z,23.97
2018-09-02T03:32:34.069Z,22.93
2018-09-02T03:35:03.816Z,18.97
2018-09-02T03:37:33.416Z,22.27
2018-09-02T03:40:02.916Z,18.90
2018-09-02T03:45:29.576Z,19.40
2018-09-02T03:48:05.288Z,17.30
2018-09-02T03:50:58.172Z,19.03
2018-09-02T03:56:21.656Z,18.23
2018-09-02T03:58:51.440Z,21.50
2018-09-02T04:01:23.220Z,21.43
2018-09-02T04:03:53.059Z,19.97
2018-09-02T04:06:32.360Z,21.67
2018-09-02T04:09:01.895Z,22.10
2018-09-02T04:11:56.440Z,18.37
2018-09-02T04:14:32.948Z,19.27
2018-09-02T04:17:12.062Z,20.90
2018-09-02T04:19:58.237Z,21.33
2018-09-02T04:22:50.588Z,17.53
2018-09-02T04:25:21.144Z,21.33
2018-09-02T04:28:08.777Z,33.23
2018-09-02T04:30:50.484Z,25.60
2018-09-02T04:33:27.720Z,20.70
2018-09-02T04:35:57.244Z,18.57
2018-09-02T04:38:26.726Z,17.80
2018-09-02T04:41:12.672Z,27.17
2018-09-02T04:43:50.816Z,22.50
2018-09-02T04:46:28.017Z,19.33
2018-09-02T04:49:02.400Z,19.50
2018-09-02T04:51:32.852Z,18.57
2018-09-02T04:54:02.380Z,21.23
2018-09-02T04:56:31.832Z,19.63
2018-09-02T04:59:08.020Z,24.83
2018-09-02T05:01:38.504Z,22.70
2018-09-02T05:04:11.472Z,20.27
2018-09-02T05:09:45.528Z,26.83
2018-09-02T05:12:17.144Z,25.83
2018-09-02T05:15:03.816Z,22.13
2018-09-02T05:17:50.792Z,19.50
2018-09-02T05:20:30.173Z,22.47
2018-09-02T05:25:58.919Z,23.50
2018-09-02T05:28:38.932Z,16.90
2018-09-02T05:31:12.352Z,18.93
2018-09-02T05:36:38.361Z,19.20
2018-09-02T05:39:16.932Z,19.73
2018-09-02T05:41:58.360Z,19.20
2018-09-02T05:44:40.412Z,16.67
2018-09-02T05:47:13.669Z,17.93
2018-09-02T05:49:48.825Z,30.43
2018-09-02T05:52:27.324Z,22.90
2018-09-02T05:55:10.211Z,16.70
2018-09-02T05:57:40.851Z,25.07
2018-09-02T06:00:12.243Z,18.17
2018-09-02T06:02:51.389Z,21.63
2018-09-02T06:05:25.280Z,21.50
2018-09-02T06:07:58.912Z,19.20
2018-09-02T06:10:35.132Z,17.17
2018-09-02T06:13:12.076Z,24.90
2018-09-02T06:15:43.756Z,18.23
2018-09-02T06:18:13.291Z,15.00
2018-09-02T06:21:04.245Z,18.73
2018-09-02T06:23:43.600Z,20.60
2018-09-02T06:26:13.068Z,23.47
2018-09-02T06:28:42.737Z,18.33
2018-09-02T06:31:13.264Z,18.47
2018-09-02T06:33:47.088Z,21.20
2018-09-02T06:36:23.112Z,22.47
2018-09-02T06:38:57.140Z,24.10
2018-09-02T06:41:26.636Z,20.00
2018-09-02T06:44:06.420Z,20.93
2018-09-02T06:46:52.669Z,15.47
2018-09-02T06:49:38.668Z,16.50
2018-09-02T06:52:12.684Z,19.43
2018-09-02T06:54:42.148Z,18.20
2018-09-02T06:57:12.600Z,21.23
2018-09-02T06:59:45.889Z,14.87
2018-09-02T07:05:29.568Z,17.03
2018-09-02T07:08:01.308Z,13.83
2018-09-02T07:10:51.085Z,13.13
2018-09-02T07:13:24.536Z,15.63
2018-09-02T07:15:58.405Z,13.33
2018-09-02T07:18:32.788Z,12.27
2018-09-02T07:21:14.340Z,11.57
2018-09-02T07:23:44.776Z,14.23
2018-09-02T07:26:22.113Z,13.93
2018-09-02T07:29:11.036Z,11.53
2018-09-02T07:31:47.209Z,12.13
2018-09-02T07:37:11.508Z,11.20
2018-09-02T07:39:48.720Z,8.43
2018-09-02T07:42:25.602Z,10.20
2018-09-02T07:44:56.028Z,7.07
2018-09-02T07:47:48.844Z,10.10
2018-09-02T07:50:18.536Z,7.50
2018-09-02T07:52:48.400Z,8.13
2018-09-02T07:55:21.368Z,7.70
2018-09-02T07:57:52.865Z,6.53
2018-09-02T08:00:23.713Z,6.00
2018-09-02T08:02:55.200Z,7.37
2018-09-02T08:05:25.952Z,5.73
2018-09-02T08:07:56.580Z,5.90
2018-09-02T08:10:26.071Z,7.90
2018-09-02T08:13:12.021Z,4.90
2018-09-02T08:15:43.847Z,7.60
2018-09-02T08:18:26.269Z,4.63
2018-09-02T08:21:10.052Z,6.73
2018-09-02T08:23:49.570Z,4.43
2018-09-02T08:26:23.416Z,10.53
2018-09-02T08:28:52.856Z,5.53
2018-09-02T08:31:26.032Z,5.50
2018-09-02T08:34:01.300Z,5.60
2018-09-02T08:36:31.769Z,5.17
2018-09-02T08:39:12.108Z,5.57
2018-09-02T08:41:45.448Z,5.10
2018-09-02T08:44:27.748Z,5.63
2018-09-02T08:46:58.184Z,5.17
2018-09-02T08:49:36.576Z,5.60
2018-09-02T08:52:06.880Z,6.20
2018-09-02T08:54:42.712Z,9.83
2018-09-02T08:57:12.315Z,4.53
2018-09-02T08:59:44.696Z,4.30
2018-09-02T09:02:18.532Z,4.40
2018-09-02T09:05:01.369Z,4.17
2018-09-02T09:07:31.771Z,4.23
2018-09-02T09:10:01.204Z,4.13
2018-09-02T09:15:24.760Z,4.90
2018-09-02T09:18:04.920Z,4.47
2018-09-02T09:23:29.008Z,3.40
2018-09-02T09:25:58.523Z,4.73
2018-09-02T09:28:31.296Z,5.00
2018-09-02T09:31:11.960Z,4.90
2018-09-02T09:33:58.904Z,4.63
2018-09-02T09:36:28.596Z,6.00
2018-09-02T09:38:58.103Z,6.37
2018-09-02T09:41:28.636Z,5.57
2018-09-02T09:44:01.722Z,4.63
2018-09-02T09:46:31.284Z,9.10
2018-09-02T09:49:11.864Z,5.80
2018-09-02T09:51:45.148Z,6.03
2018-09-02T09:54:19.596Z,5.90
2018-09-02T09:56:52.582Z,6.13
2018-09-02T09:59:22.332Z,5.90
2018-09-02T10:01:55.028Z,6.03
2018-09-02T10:04:34.480Z,6.40
2018-09-02T10:07:03.928Z,6.37
2018-09-02T10:09:37.130Z,7.00
2018-09-02T10:12:10.663Z,6.47
2018-09-02T10:17:39.753Z,5.83
2018-09-02T10:20:11.260Z,5.97
2018-09-02T10:23:09.956Z,5.83
2018-09-02T10:25:51.192Z,6.13
2018-09-02T10:28:24.039Z,6.10
2018-09-02T10:31:09.496Z,5.77
2018-09-02T10:33:44.671Z,5.50
2018-09-02T10:36:14.124Z,6.33
2018-09-02T10:38:48.456Z,6.00
2018-09-02T10:44:12.108Z,7.50
2018-09-02T10:46:51.256Z,6.07
2018-09-02T10:49:44.747Z,5.60
2018-09-02T10:52:15.242Z,6.20
2018-09-02T10:54:46.932Z,6.47
2018-09-02T11:00:11.244Z,9.37
2018-09-02T11:02:46.568Z,7.40
2018-09-02T11:05:20.175Z,9.53
2018-09-02T11:07:56.556Z,7.03
2018-09-02T11:10:38.688Z,8.53
2018-09-02T11:13:11.814Z,7.40
2018-09-02T11:15:48.655Z,7.83
2018-09-02T11:18:19.003Z,8.47
2018-09-02T11:20:48.439Z,9.13
2018-09-02T11:23:18.104Z,7.43
2018-09-02T11:26:08.095Z,7.93
2018-09-02T11:28:42.644Z,7.80
2018-09-02T11:31:13.183Z,7.10
2018-09-02T11:33:44.624Z,7.67
2018-09-02T11:36:15.076Z,6.50
2018-09-02T11:38:51.599Z,6.70
2018-09-02T11:41:22.155Z,9.03
2018-09-02T11:43:51.787Z,6.63
2018-09-02T11:46:24.555Z,15.93
2018-09-02T11:48:55.512Z,6.50
2018-09-02T11:51:25.252Z,5.93
2018-09-02T11:53:58.468Z,6.07
2018-09-02T11:56:28.156Z,7.43
2018-09-02T11:59:07.472Z,5.93
2018-09-02T12:01:38.428Z,6.33
2018-09-02T12:04:08.051Z,5.43
2018-09-02T12:06:42.776Z,7.23
2018-09-02T12:09:37.763Z,6.57
2018-09-02T12:12:09.255Z,6.63
2018-09-02T12:14:41.738Z,5.87
2018-09-02T12:17:11.191Z,5.93
2018-09-02T12:19:46.107Z,5.63
2018-09-02T12:25:10.238Z,8.23
2018-09-02T12:27:40.019Z,7.10
2018-09-02T12:30:10.551Z,5.60
2018-09-02T12:32:48.375Z,6.07
2018-09-02T12:35:21.975Z,6.57
2018-09-02T12:38:03.543Z,7.00
2018-09-02T12:40:56.108Z,6.00
2018-09-02T12:43:30.903Z,6.47
2018-09-02T12:46:19.069Z,7.20
2018-09-02T12:48:48.511Z,5.90
2018-09-02T12:51:22.599Z,7.03
2018-09-02T12:53:57.731Z,6.60
2018-09-02T12:56:28.187Z,7.40
2018-09-02T12:59:04.675Z,6.90
2018-09-02T13:01:41.883Z,7.83
2018-09-02T13:04:12.367Z,5.40
2018-09-02T13:06:41.835Z,9.97
2018-09-02T13:09:14.334Z,7.87
2018-09-02T13:11:55.241Z,8.33
2018-09-02T13:14:34.723Z,9.67
2018-09-02T13:17:10.128Z,7.50
2018-09-02T13:19:49.787Z,8.40
2018-09-02T13:22:19.331Z,11.13
2018-09-02T13:24:55.526Z,8.10
2018-09-02T13:27:26.039Z,8.60
2018-09-02T13:30:01.015Z,9.63
2018-09-02T13:32:34.439Z,8.67
2018-09-02T13:35:13.875Z,8.90
2018-09-02T13:38:07.531Z,8.53
2018-09-02T13:41:07.336Z,9.93
2018-09-02T13:43:41.955Z,13.13
2018-09-02T13:46:18.575Z,6.30
2018-09-02T13:49:04.106Z,7.93
2018-09-02T13:51:37.595Z,10.17
2018-09-02T13:54:06.935Z,7.90
2018-09-02T13:56:54.399Z,9.70
2018-09-02T13:59:24.211Z,6.60
2018-09-02T14:01:57.109Z,6.97
2018-09-02T14:04:38.520Z,7.77
2018-09-02T14:07:26.338Z,8.00
2018-09-02T14:10:00.619Z,8.87
2018-09-02T14:12:30.196Z,8.50
2018-09-02T14:15:03.312Z,10.30
2018-09-02T14:17:39.666Z,11.07
2018-09-02T14:20:09.155Z,9.67
2018-09-02T14:22:39.888Z,10.20
2018-09-02T14:25:09.444Z,10.40
2018-09-02T14:27:39.136Z,11.27
2018-09-02T14:30:09.917Z,11.63
2018-09-02T14:32:40.459Z,12.90
2018-09-02T14:35:09.906Z,12.87
2018-09-02T14:37:40.592Z,13.00
2018-09-02T14:40:11.136Z,10.33
2018-09-02T14:43:06.904Z,12.30
2018-09-02T14:45:37.728Z,12.40
2018-09-02T14:48:09.279Z,16.57
2018-09-02T14:50:51.198Z,10.70
2018-09-02T14:53:24.874Z,14.47
2018-09-02T14:56:13.972Z,12.60
2018-09-02T14:58:49.188Z,11.57
2018-09-02T15:01:25.703Z,13.37
2018-09-02T15:04:04.775Z,11.20
2018-09-02T15:06:46.095Z,14.70
2018-09-02T15:09:20.939Z,13.53
2018-09-02T15:11:54.143Z,13.00
2018-09-02T15:14:24.603Z,14.53
2018-09-02T15:16:56.122Z,13.40
2018-09-02T15:19:44.939Z,14.80
2018-09-02T15:22:27.244Z,14.70
2018-09-02T15:25:00.255Z,15.40
2018-09-02T15:27:41.891Z,16.40
2018-09-02T15:30:18.115Z,16.60
2018-09-02T15:33:06.357Z,14.10
2018-09-02T15:35:36.831Z,14.00
2018-09-02T15:38:07.335Z,15.77
2018-09-02T15:40:37.007Z,16.33
2018-09-02T15:43:06.823Z,15.17
2018-09-02T15:45:38.400Z,18.00
2018-09-02T15:48:09.167Z,16.03
2018-09-02T15:50:44.187Z,18.97
2018-09-02T15:53:14.779Z,17.70
2018-09-02T15:55:45.443Z,13.10
2018-09-02T15:58:27.367Z,15.63
2018-09-02T16:00:56.995Z,14.83
2018-09-02T16:03:29.771Z,15.70
2018-09-02T16:06:01.299Z,16.17
2018-09-02T16:08:35.879Z,20.07
2018-09-02T16:11:08.891Z,16.80
2018-09-02T16:13:42.075Z,18.67
2018-09-02T16:16:12.567Z,18.10
2018-09-02T16:19:07.048Z,18.37
2018-09-02T16:21:59.923Z,25.50
2018-09-02T16:24:30.439Z,18.60
2018-09-02T16:27:07.735Z,25.70
2018-09-02T16:29:40.138Z,26.07
2018-09-02T16:32:09.798Z,25.50
2018-09-02T16:34:40.871Z,24.30
2018-09-02T16:37:11.344Z,23.80
2018-09-02T16:39:41.747Z,33.10
2018-09-02T16:42:12.155Z,24.40
2018-09-02T16:44:41.803Z,20.63
2018-09-02T16:47:15.551Z,22.57
2018-09-02T16:52:27.644Z,25.47
2018-09-02T16:55:07.859Z,22.80
2018-09-02T16:57:38.456Z,26.57
2018-09-02T17:00:10.215Z,26.00
2018-09-02T17:05:34.539Z,30.30
2018-09-02T17:08:08.427Z,26.60
2018-09-02T17:10:50.571Z,33.07
2018-09-02T17:13:21.719Z,26.10
2018-09-02T17:15:57.924Z,28.20
2018-09-02T17:18:27.691Z,28.00
2018-09-02T17:20:57.775Z,20.87
2018-09-02T17:23:57.609Z,23.20
2018-09-02T17:26:50.777Z,26.70
2018-09-02T17:29:26.626Z,23.23
2018-09-02T17:31:57.027Z,28.30
2018-09-02T17:34:36.138Z,26.77
2018-09-02T17:37:17.003Z,25.90
2018-09-02T17:39:51.315Z,33.77
2018-09-02T17:42:31.651Z,34.83
2018-09-02T17:45:03.255Z,29.23
2018-09-02T17:47:50.543Z,24.40
2018-09-02T17:50:20.298Z,28.43
2018-09-02T17:52:51.971Z,25.70
2018-09-02T17:55:21.859Z,25.93
2018-09-02T17:57:59.295Z,28.20
2018-09-02T18:00:35.285Z,25.00
2018-09-02T18:03:06.851Z,23.40
2018-09-02T18:05:52.874Z,21.60
2018-09-02T18:08:22.470Z,25.80
2018-09-02T18:10:54.023Z,22.57
2018-09-02T18:13:24.494Z,23.57
2018-09-02T18:16:06.823Z,22.90
2018-09-02T18:19:05.979Z,25.20
2018-09-02T18:21:37.015Z,19.00
2018-09-02T18:24:06.698Z,21.53
2018-09-02T18:26:36.282Z,20.07
2018-09-02T18:29:07.738Z,23.43
2018-09-02T18:31:45.231Z,21.60
2018-09-02T18:34:15.826Z,24.87
2018-09-02T18:36:50.287Z,22.53
2018-09-02T18:39:23.955Z,22.20
2018-09-02T18:41:53.410Z,36.17
2018-09-02T18:44:28.683Z,23.80
2018-09-02T18:46:58.387Z,25.77
2018-09-02T18:49:33.574Z,23.40
2018-09-02T18:52:04.135Z,22.07
2018-09-02T18:54:34.638Z,21.40
2018-09-02T18:57:05.535Z,22.80
2018-09-02T18:59:46.318Z,25.90
2018-09-02T19:02:16.107Z,28.20
2018-09-02T19:04:45.701Z,22.07
2018-09-02T19:07:16.498Z,25.50
2018-09-02T19:09:50.462Z,33.13
2018-09-02T19:12:20.147Z,20.87
2018-09-02T19:14:55.663Z,20.40
2018-09-02T19:17:30.011Z,22.67
2018-09-02T19:19:59.806Z,24.00
2018-09-02T19:22:29.638Z,25.87
2018-09-02T19:24:59.322Z,25.67
2018-09-02T19:27:40.623Z,23.03
2018-09-02T19:30:13.494Z,27.13
2018-09-02T19:32:50.870Z,28.07
2018-09-02T19:35:24.119Z,28.77
2018-09-02T19:37:54.858Z,28.03
2018-09-02T19:40:32.306Z,28.87
2018-09-02T19:43:01.763Z,26.63
2018-09-02T19:45:31.302Z,27.23
2018-09-02T19:48:04.095Z,25.27
2018-09-02T19:50:35.743Z,28.67
2018-09-02T19:53:07.514Z,29.10
2018-09-02T19:55:38.362Z,31.30
2018-09-02T19:58:07.950Z,32.63
2018-09-02T20:00:37.520Z,27.43
2018-09-02T20:03:08.042Z,29.60
2018-09-02T20:05:47.070Z,29.80
2018-09-02T20:08:22.352Z,37.90
2018-09-02T20:10:53.798Z,33.97
2018-09-02T20:13:23.415Z,32.10
2018-09-02T20:15:52.902Z,44.23
2018-09-02T20:18:24.446Z,33.03
2018-09-02T20:20:53.982Z,28.50
2018-09-02T20:23:23.583Z,34.03
2018-09-02T20:26:01.211Z,32.57
2018-09-02T20:28:30.927Z,36.10
2018-09-02T20:31:04.522Z,36.60
2018-09-02T20:33:44.329Z,31.00
2018-09-02T20:36:14.846Z,32.17
2018-09-02T20:38:44.694Z,30.90
2018-09-02T20:41:16.574Z,32.83
2018-09-02T20:43:46.482Z,25.67
2018-09-02T20:46:20.445Z,35.00
2018-09-02T20:48:50.083Z,29.00
2018-09-02T20:51:19.665Z,35.93
2018-09-02T20:53:49.386Z,33.13
2018-09-02T20:56:24.614Z,31.40
2018-09-02T20:58:57.399Z,39.90
2018-09-02T21:01:27.119Z,36.80
2018-09-02T21:04:00.011Z,45.03
2018-09-02T21:06:33.363Z,39.50
2018-09-02T21:09:03.091Z,40.30
2018-09-02T21:11:34.955Z,45.13
2018-09-02T21:14:04.676Z,47.80
2018-09-02T21:16:35.319Z,47.33
2018-09-02T21:19:06.430Z,46.03
2018-09-02T21:21:42.110Z,51.00
2018-09-02T21:24:11.763Z,46.10
2018-09-02T21:26:42.654Z,51.87
2018-09-02T21:29:17.267Z,51.27
2018-09-02T21:31:51.736Z,43.73
2018-09-02T21:34:24.679Z,48.97
2018-09-02T21:36:56.386Z,49.60
2018-09-02T21:39:32.998Z,52.47
2018-09-02T21:42:06.782Z,51.23
2018-09-02T21:44:38.422Z,60.07
2018-09-02T21:47:13.222Z,55.97
2018-09-02T21:49:44.470Z,50.47
2018-09-02T21:52:15.430Z,56.80
2018-09-02T21:54:45.143Z,47.80
2018-09-02T21:57:24.543Z,52.67
2018-09-02T21:59:55.280Z,49.00
2018-09-02T22:02:27.111Z,53.87
2018-09-02T22:04:56.938Z,50.07
2018-09-02T22:07:27.363Z,58.63
2018-09-02T22:09:58.083Z,51.70
2018-09-02T22:12:28.686Z,53.33
2018-09-02T22:14:59.607Z,47.93
2018-09-02T22:17:29.191Z,51.90
2018-09-02T22:19:58.791Z,52.27
2018-09-02T22:22:28.383Z,57.23
2018-09-02T22:24:58.107Z,59.50
2018-09-02T22:27:27.971Z,45.57
2018-09-02T22:30:02.578Z,45.90
2018-09-02T22:32:36.902Z,56.80
2018-09-02T22:35:07.824Z,48.23
2018-09-02T22:37:43.138Z,46.50
2018-09-02T22:43:07.454Z,42.10
2018-09-02T22:45:50.713Z,61.73
2018-09-02T22:48:20.532Z,47.63
2018-09-02T22:50:58.311Z,55.57
2018-09-02T22:53:29.143Z,51.40
2018-09-02T22:56:04.907Z,48.60
2018-09-02T22:58:35.491Z,44.57
2018-09-02T23:01:07.111Z,62.67
2018-09-02T23:03:46.314Z,57.10
2018-09-02T23:06:23.064Z,54.40
2018-09-02T23:08:58.621Z,52.60
2018-09-02T23:11:31.351Z,62.97
2018-09-02T23:14:06.326Z,64.00
2018-09-02T23:16:40.422Z,65.67
2018-09-02T23:19:20.425Z,60.90
2018-09-02T23:21:56.799Z,66.10
2018-09-02T23:24:30.070Z,58.33
2018-09-02T23:30:05.303Z,68.10
2018-09-02T23:32:36.246Z,72.40
2018-09-02T23:35:06.546Z,58.23
2018-09-02T23:37:36.174Z,68.20
2018-09-02T23:42:59.914Z,72.43
2018-09-02T23:45:35.780Z,66.63
2018-09-02T23:48:10.847Z,81.93
2018-09-02T23:50:44.526Z,61.53
2018-09-02T23:56:12.698Z,78.33
2018-09-02T23:59:05.666Z,63.37
